Time;durP1;ratioP1;P1;durP2;ratioP2;P2;SDS_P1;SDS_P2;PMS_P1;PMS_P2;Temp;Humidity;BMP_temperature;BMP_pressure;BME280_temperature;BME280_humidity;BME280_pressure;Samples;Min_cycle;Max_cycle;Signal;HPM_P1;HPM_P2
2024/01/30 00:02:11;;;;;;;1.50;1.20;;;;;;;17.04;43.97;97964.69;10362231;28;20046;-37
2024/01/30 00:07:11;;;;;;;2.10;1.43;;;;;;;17.03;43.68;97958.78;10361259;28;20088;-36
2024/01/30 00:12:11;;;;;;;1.97;1.47;;;;;;;17.03;43.90;97957.91;10363249;28;20038;-38
2024/01/30 00:17:12;;;;;;;1.80;1.30;;;;;;;17.03;43.90;97957.91;10362146;28;20864;-37
2024/01/30 00:22:12;;;;;;;1.90;1.10;;;;;;;17.02;43.62;97962.13;10362225;28;20034;-37
2024/01/30 00:27:13;;;;;;;1.80;1.03;;;;;;;17.01;43.58;97955.38;10362549;28;20350;-39
2024/01/30 00:32:13;;;;;;;1.33;1.03;;;;;;;16.99;43.63;97956.13;10361984;28;20038;-37
2024/01/30 00:37:13;;;;;;;1.50;0.90;;;;;;;17.02;43.80;97959.59;10361886;28;20029;-36
2024/01/30 00:42:14;;;;;;;1.52;1.00;;;;;;;17.03;43.72;97963.84;10362652;28;20792;-35
2024/01/30 00:47:14;;;;;;;1.77;1.10;;;;;;;17.00;43.95;97958.69;10361204;28;20056;-37
2024/01/30 00:52:15;;;;;;;2.33;1.03;;;;;;;17.02;43.69;97958.72;10361427;28;20292;-35
2024/01/30 00:57:15;;;;;;;1.98;0.70;;;;;;;17.03;43.74;97955.38;10363142;28;20038;-37
2024/01/30 01:02:17;;;;;;;1.43;0.80;;;;;;;17.02;43.97;97961.25;10369252;28;20041;-39
2024/01/30 01:07:17;;;;;;;1.33;0.90;;;;;;;17.02;43.58;97961.25;10367627;28;20029;-35
2024/01/30 01:12:18;;;;;;;3.10;0.90;;;;;;;17.02;43.34;97964.66;10369254;28;20042;-35
2024/01/30 01:17:18;;;;;;;1.58;1.00;;;;;;;16.99;43.49;97963.72;10368225;28;20048;-38
2024/01/30 01:22:19;;;;;;;1.35;0.90;;;;;;;17.00;43.41;97960.38;10367723;28;20096;-39
2024/01/30 01:27:19;;;;;;;1.60;1.00;;;;;;;17.00;43.33;97973.03;10368657;28;20030;-39
2024/01/30 01:32:19;;;;;;;1.40;0.90;;;;;;;16.98;43.31;97965.38;10367728;28;20044;-39
2024/01/30 01:37:22;;;;;;;1.08;0.98;;;;;;;16.99;43.59;97962.03;10367111;28;20096;-37
2024/01/30 01:42:22;;;;;;;1.33;0.85;;;;;;;16.99;43.05;97956.97;10367978;28;20042;-39
2024/01/30 01:47:23;;;;;;;1.27;0.97;;;;;;;17.00;43.13;97960.38;10366702;28;20037;-39
2024/01/30 01:52:23;;;;;;;0.82;0.70;;;;;;;17.01;43.67;97949.44;10366520;28;20300;-37
2024/01/30 01:57:23;;;;;;;1.50;1.15;;;;;;;17.01;42.97;97945.25;10367319;28;20057;-36
2024/01/30 02:02:26;;;;;;;1.03;0.80;;;;;;;17.00;43.12;97948.56;10366387;28;20037;-39
2024/01/30 02:07:27;;;;;;;0.80;0.70;;;;;;;16.98;43.29;97939.25;10364217;28;20045;-37
2024/01/30 02:12:28;;;;;;;1.40;0.93;;;;;;;17.00;43.68;97942.66;10366391;28;20498;-35
2024/01/30 02:17:28;;;;;;;1.03;0.70;;;;;;;17.00;43.17;97935.06;10366523;28;20045;-37
2024/01/30 02:22:29;;;;;;;1.10;0.80;;;;;;;17.00;43.05;97932.53;10364701;28;20038;-35
2024/01/30 02:27:29;;;;;;;1.10;1.00;;;;;;;17.01;43.61;97939.31;10366695;28;20025;-37
2024/01/30 02:32:30;;;;;;;1.43;1.10;;;;;;;16.97;43.34;97943.44;10364606;28;20026;-38
2024/01/30 02:37:30;;;;;;;1.37;0.93;;;;;;;16.99;43.41;97931.69;10380239;28;20388;-42
2024/01/30 02:42:30;;;;;;;0.90;0.70;;;;;;;16.98;43.14;97934.19;10365783;28;20041;-40
2024/01/30 02:47:31;;;;;;;1.20;0.83;;;;;;;16.99;43.10;97928.31;10364641;28;20033;-39
2024/01/30 02:52:31;;;;;;;1.33;1.00;;;;;;;16.98;43.04;97924.06;10361920;28;20034;-38
2024/01/30 02:57:32;;;;;;;1.33;0.87;;;;;;;16.97;43.22;97918.13;10365109;28;20068;-39
2024/01/30 03:02:32;;;;;;;0.90;0.70;;;;;;;16.98;43.08;97921.53;10364609;28;20292;-36
2024/01/30 03:07:33;;;;;;;0.98;0.88;;;;;;;16.99;43.26;97935.91;10364086;28;20026;-39
2024/01/30 03:12:34;;;;;;;1.52;0.90;;;;;;;16.97;43.16;97927.38;10363784;28;20091;-40
2024/01/30 03:17:36;;;;;;;1.80;0.90;;;;;;;16.98;43.53;97944.31;10363969;28;20021;-37
2024/01/30 03:22:36;;;;;;;1.92;0.80;;;;;;;16.97;43.05;97948.50;10359863;28;20301;-38
2024/01/30 03:27:37;;;;;;;0.83;0.83;;;;;;;16.97;42.90;97942.56;10364072;28;20038;-38
2024/01/30 03:32:37;;;;;;;1.70;0.80;;;;;;;16.98;42.98;97960.31;10362960;28;20292;-39
2024/01/30 03:37:37;;;;;;;1.17;1.00;;;;;;;16.97;42.73;97952.69;10363424;28;20038;-38
2024/01/30 03:42:38;;;;;;;1.00;0.80;;;;;;;16.94;42.61;97963.63;10363748;28;20464;-37
2024/01/30 03:47:39;;;;;;;1.60;0.90;;;;;;;16.96;42.66;97972.09;10362463;28;20437;-36
2024/01/30 03:52:40;;;;;;;2.25;0.90;;;;;;;16.93;42.83;97964.44;10362089;28;20034;-39
2024/01/30 03:57:40;;;;;;;1.33;0.93;;;;;;;16.94;42.75;97965.28;10363345;28;20033;-37
2024/01/30 04:02:41;;;;;;;1.63;1.10;;;;;;;16.94;42.52;97957.69;10362403;28;20044;-37
2024/01/30 04:07:41;;;;;;;1.10;1.00;;;;;;;16.95;42.66;97972.91;10358936;28;20112;-36
2024/01/30 04:12:42;;;;;;;0.80;0.77;;;;;;;16.96;42.79;97971.22;10361810;28;20171;-40
2024/01/30 04:17:42;;;;;;;1.00;0.90;;;;;;;16.97;43.44;97978.00;10362172;28;20038;-39
2024/01/30 04:22:44;;;;;;;2.93;1.80;;;;;;;16.96;43.32;97976.28;10361748;28;20041;-37
2024/01/30 04:27:44;;;;;;;1.63;1.00;;;;;;;16.90;43.19;97974.44;10363202;28;20034;-39
2024/01/30 04:32:45;;;;;;;1.52;0.85;;;;;;;16.95;43.11;97989.75;10360451;28;20623;-42
2024/01/30 04:37:45;;;;;;;2.30;1.17;;;;;;;16.89;43.40;97979.50;10360698;28;20030;-39
2024/01/30 04:42:45;;;;;;;1.15;0.93;;;;;;;16.98;43.50;97984.78;10362660;28;20030;-43
2024/01/30 04:47:46;;;;;;;1.00;0.68;;;;;;;17.03;43.07;97983.22;10363100;28;20242;-40
2024/01/30 04:52:46;;;;;;;1.27;0.90;;;;;;;17.07;42.83;97985.03;10363026;28;20033;-37
2024/01/30 04:57:47;;;;;;;1.77;1.03;;;;;;;17.09;42.87;97976.63;10365293;28;20276;-43
2024/01/30 05:02:47;;;;;;;1.27;0.80;;;;;;;17.11;43.06;97979.22;10365655;28;20768;-43
2024/01/30 05:07:48;;;;;;;1.30;1.10;;;;;;;17.13;42.99;97990.22;10365674;28;20040;-37
2024/01/30 05:12:48;;;;;;;1.00;0.90;;;;;;;17.21;43.69;97988.72;10367095;28;20100;-44
2024/01/30 05:17:48;;;;;;;1.37;0.90;;;;;;;17.22;43.15;97992.97;10367152;28;20034;-45
2024/01/30 05:22:49;;;;;;;0.83;0.80;;;;;;;17.33;44.13;97978.94;10359832;28;20083;-39
2024/01/30 05:27:49;;;;;;;1.35;0.98;;;;;;;17.38;44.74;97979.91;10359795;28;20021;-44
2024/01/30 05:32:50;;;;;;;0.80;0.70;;;;;;;17.42;44.79;97985.09;10360392;28;20087;-43
2024/01/30 05:37:50;;;;;;;1.95;0.82;;;;;;;17.45;44.61;97990.25;10365970;28;20032;-41
2024/01/30 05:42:51;;;;;;;0.90;0.70;;;;;;;17.39;42.88;97989.22;10367510;28;20037;-40
2024/01/30 05:47:51;;;;;;;1.05;0.90;;;;;;;17.34;41.71;97984.00;10366659;28;20030;-40
2024/01/30 05:52:51;;;;;;;1.07;0.83;;;;;;;17.40;41.04;97993.50;10366742;28;20375;-42
2024/01/30 05:57:52;;;;;;;2.30;1.30;;;;;;;17.41;41.00;97992.66;10367257;28;20033;-43
2024/01/30 06:02:52;;;;;;;1.25;0.70;;;;;;;17.37;40.56;97991.72;10365663;28;20152;-40
2024/01/30 06:07:53;;;;;;;1.60;1.50;;;;;;;17.37;40.88;97995.94;10365111;28;20473;-42
2024/01/30 06:12:53;;;;;;;12.57;5.90;;;;;;;17.21;45.82;98008.97;10366519;28;20128;-38
2024/01/30 06:17:54;;;;;;;33.50;18.63;;;;;;;17.05;51.19;98001.81;10366041;28;20041;-37
2024/01/30 06:22:54;;;;;;;30.70;17.03;;;;;;;17.02;50.61;97997.56;10362433;28;20080;-40
2024/01/30 06:27:54;;;;;;;35.53;19.17;;;;;;;16.99;51.43;97999.16;10365563;28;20506;-40
2024/01/30 06:32:55;;;;;;;39.17;18.37;;;;;;;16.92;51.71;98005.69;10364933;28;20034;-38
2024/01/30 06:37:55;;;;;;;10.77;6.13;;;;;;;16.72;41.30;98011.06;10363994;28;20034;-40
2024/01/30 06:42:55;;;;;;;29.47;14.07;;;;;;;16.77;48.87;98008.66;10363208;28;20513;-41
2024/01/30 06:47:56;;;;;;;28.10;13.97;;;;;;;16.76;49.17;98015.38;10363438;28;20041;-43
2024/01/30 06:52:56;;;;;;;29.83;13.53;;;;;;;16.69;49.44;97994.94;10363686;28;20050;-42
2024/01/30 06:57:56;;;;;;;27.50;12.30;;;;;;;16.69;49.62;98005.91;10364765;28;20414;-43
2024/01/30 07:02:57;;;;;;;22.83;10.97;;;;;;;16.75;49.88;98017.03;10364140;28;20088;-42
2024/01/30 07:07:57;;;;;;;18.48;10.57;;;;;;;16.74;50.24;98020.38;10359911;28;20042;-45
2024/01/30 07:12:58;;;;;;;20.90;11.05;;;;;;;16.73;50.20;98016.97;10364216;28;20050;-44
2024/01/30 07:17:58;;;;;;;21.17;9.48;;;;;;;16.73;50.05;98021.19;10363103;28;20050;-41
2024/01/30 07:22:59;;;;;;;18.58;10.45;;;;;;;16.70;50.36;98027.84;10363425;28;20037;-41
2024/01/30 07:27:59;;;;;;;17.60;10.68;;;;;;;16.72;50.42;98031.31;10363972;28;20030;-40
2024/01/30 07:33:00;;;;;;;16.48;9.40;;;;;;;16.72;50.59;98032.97;10363039;28;20041;-38
2024/01/30 07:38:00;;;;;;;17.50;10.00;;;;;;;16.72;50.71;98031.31;10363071;28;20417;-38
2024/01/30 07:43:01;;;;;;;16.63;9.13;;;;;;;16.72;50.54;98036.34;10363167;28;20088;-39
2024/01/30 07:48:01;;;;;;;16.98;8.85;;;;;;;16.67;50.93;98030.31;10363034;28;20606;-40
2024/01/30 07:53:02;;;;;;;15.17;8.80;;;;;;;16.71;50.37;98037.13;10361909;28;20042;-41
2024/01/30 07:58:04;;;;;;;13.63;8.50;;;;;;;16.70;50.82;98037.97;10363317;28;20494;-37
2024/01/30 08:03:04;;;;;;;14.90;8.32;;;;;;;16.70;50.61;98037.13;10361967;28;20553;-38
2024/01/30 08:08:05;;;;;;;14.97;7.83;;;;;;;16.71;50.58;98043.88;10361800;28;20042;-38
2024/01/30 08:13:06;;;;;;;15.55;8.73;;;;;;;16.69;50.70;98031.19;10362847;28;20046;-38
2024/01/30 08:18:07;;;;;;;16.65;8.30;;;;;;;16.69;50.99;98032.88;10362118;28;20107;-39
2024/01/30 08:23:07;;;;;;;14.68;8.75;;;;;;;16.68;50.79;98029.47;10361125;28;20045;-39
2024/01/30 08:28:08;;;;;;;11.73;7.03;;;;;;;16.71;50.72;98024.50;10362704;28;20029;-39
2024/01/30 08:33:08;;;;;;;12.53;7.43;;;;;;;16.68;50.91;98019.38;10361091;28;20029;-38
2024/01/30 08:38:08;;;;;;;11.37;7.60;;;;;;;16.66;51.30;98015.94;10361851;28;20083;-35
2024/01/30 08:43:10;;;;;;;11.73;7.03;;;;;;;16.69;51.24;98010.13;10361955;28;20426;-38
2024/01/30 08:48:10;;;;;;;13.63;7.15;;;;;;;16.68;51.07;98011.78;10361259;28;20030;-39
2024/01/30 08:53:11;;;;;;;14.38;7.07;;;;;;;16.69;51.02;98017.72;10361061;28;20048;-40
2024/01/30 08:58:11;;;;;;;12.30;7.00;;;;;;;16.67;51.16;98007.53;10361907;28;20038;-39
2024/01/30 09:03:11;;;;;;;10.23;6.00;;;;;;;16.67;51.13;98012.59;10361012;28;20038;-37
2024/01/30 09:08:12;;;;;;;9.37;5.43;;;;;;;16.67;51.41;98015.13;10360512;28;20034;-38
2024/01/30 09:13:12;;;;;;;11.50;6.13;;;;;;;16.67;51.10;98013.44;10361109;28;20049;-37
2024/01/30 09:18:13;;;;;;;11.73;6.65;;;;;;;16.66;51.49;98015.94;10361781;28;20156;-37
2024/01/30 09:23:13;;;;;;;10.27;5.97;;;;;;;16.65;51.43;98013.38;10367524;28;20049;-38
2024/01/30 09:28:13;;;;;;;9.40;5.60;;;;;;;16.65;51.46;98026.00;10368921;28;20057;-37
2024/01/30 09:33:14;;;;;;;10.07;5.80;;;;;;;16.63;51.22;98020.91;10367102;28;20853;-39
2024/01/30 09:38:14;;;;;;;10.60;5.40;;;;;;;16.65;51.45;98037.00;10367313;28;20299;-39
2024/01/30 09:43:19;;;;;;;8.37;5.27;;;;;;;16.66;50.92;98038.72;10367994;28;20724;-39
2024/01/30 09:48:20;;;;;;;8.70;5.63;;;;;;;16.65;51.42;98038.66;10367329;28;20029;-39
2024/01/30 09:53:22;;;;;;;9.85;5.57;;;;;;;16.66;51.34;98031.13;10366599;28;20033;-37
2024/01/30 09:58:22;;;;;;;8.43;4.85;;;;;;;16.66;51.46;98046.28;10364042;28;20037;-38
2024/01/30 10:03:23;;;;;;;8.90;5.50;;;;;;;16.65;51.27;98031.94;10365796;28;20496;-36
2024/01/30 10:08:23;;;;;;;7.93;5.27;;;;;;;16.67;51.60;98042.06;10366462;28;20288;-37
2024/01/30 10:13:23;;;;;;;8.25;5.00;;;;;;;16.67;51.38;98040.41;10366643;28;20030;-37
2024/01/30 10:18:24;;;;;;;7.40;4.40;;;;;;;16.66;51.77;98031.13;10366265;28;20038;-41
2024/01/30 10:23:24;;;;;;;8.50;5.33;;;;;;;16.66;51.39;98031.13;10365544;28;20847;-37
2024/01/30 10:28:29;;;;;;;8.77;4.53;;;;;;;16.64;51.32;98031.88;10365800;28;20410;-39
2024/01/30 10:33:30;;;;;;;8.80;4.40;;;;;;;16.65;51.36;98039.53;10364726;28;20034;-38
2024/01/30 10:38:32;;;;;;;7.50;4.72;;;;;;;16.67;51.74;98035.34;10364775;28;20052;-37
2024/01/30 10:43:40;;;;;;;6.35;4.63;;;;;;;16.67;51.19;98024.38;10365649;28;20564;-36
2024/01/30 10:48:44;;;;;;;6.63;4.15;;;;;;;16.67;51.15;98021.03;10364660;28;20108;-35
2024/01/30 10:53:46;;;;;;;6.78;4.15;;;;;;;16.66;51.78;98021.00;10364312;28;20030;-39
2024/01/30 10:58:49;;;;;;;6.80;4.75;;;;;;;16.66;51.29;98026.06;10361016;28;20045;-37
2024/01/30 11:03:53;;;;;;;7.05;4.18;;;;;;;16.68;51.49;98032.00;10364451;28;20490;-36
2024/01/30 11:09:02;;;;;;;7.00;4.03;;;;;;;16.67;51.58;98017.66;10363644;28;20033;-39
2024/01/30 11:14:03;;;;;;;6.65;4.22;;;;;;;16.67;51.58;98021.84;10364662;28;20038;-39
2024/01/30 11:19:03;;;;;;;5.23;3.57;;;;;;;16.67;51.43;98012.59;10363678;28;20505;-40
2024/01/30 11:24:04;;;;;;;7.83;4.20;;;;;;;16.69;51.65;98018.56;10363289;28;20296;-39
2024/01/30 11:29:07;;;;;;;6.75;4.45;;;;;;;16.70;51.21;98016.88;10363236;28;20038;-38
2024/01/30 11:34:08;;;;;;;10.75;3.97;;;;;;;16.72;46.88;98015.25;10363753;28;20037;-41
2024/01/30 11:39:08;;;;;;;5.13;3.33;;;;;;;16.69;49.52;98015.19;10362418;28;20042;-40
2024/01/30 11:44:11;;;;;;;6.63;3.53;;;;;;;16.74;50.76;98009.44;10362427;28;20041;-39
2024/01/30 11:49:12;;;;;;;6.72;4.45;;;;;;;16.77;50.49;97996.84;10360686;28;20512;-37
2024/01/30 11:54:12;;;;;;;9.57;4.90;;;;;;;16.74;51.45;97999.31;10361846;28;20036;-39
2024/01/30 11:59:14;;;;;;;11.23;6.20;;;;;;;16.73;51.75;97999.25;10362262;28;20034;-36
2024/01/30 12:04:15;;;;;;;8.68;5.53;;;;;;;16.74;51.56;97984.97;10363038;28;20037;-38
2024/01/30 12:09:17;;;;;;;8.43;4.95;;;;;;;16.74;50.98;97977.38;10361942;28;20040;-37
2024/01/30 12:14:19;;;;;;;7.10;4.80;;;;;;;16.75;51.55;97985.84;10361996;28;20646;-38
2024/01/30 12:19:25;;;;;;;8.30;4.53;;;;;;;16.76;50.98;97977.44;10362353;28;20494;-35
2024/01/30 12:24:30;;;;;;;;;;;;;;;16.84;50.52;97970.91;10359474;28;20033;-35
2024/01/30 12:29:32;;;;;;;6.75;4.53;;;;;;;16.90;50.92;97976.16;10361618;28;20003;-38
2024/01/30 12:34:33;;;;;;;11.70;3.83;;;;;;;16.91;49.05;97972.78;10361671;28;20117;-41
2024/01/30 12:39:34;;;;;;;6.57;3.87;;;;;;;16.97;50.01;97970.41;10360845;28;20121;-38
2024/01/30 12:44:35;;;;;;;9.57;3.92;;;;;;;16.97;51.18;97978.00;10362014;28;20038;-36
2024/01/30 12:49:35;;;;;;;7.40;4.25;;;;;;;16.97;52.26;97978.84;10361513;28;20526;-38
2024/01/30 12:54:36;;;;;;;6.47;3.80;;;;;;;16.99;49.39;97981.44;10364115;28;20068;-41
2024/01/30 12:59:36;;;;;;;8.43;4.07;;;;;;;16.99;50.14;97966.25;10369178;28;20041;-39
2024/01/30 13:04:37;;;;;;;6.50;3.53;;;;;;;17.02;49.50;97972.25;10368287;28;20292;-39
2024/01/30 13:09:37;;;;;;;6.53;3.45;;;;;;;17.05;48.43;97966.38;10368262;28;20034;-38
2024/01/30 13:14:38;;;;;;;8.07;4.00;;;;;;;17.02;49.99;97972.25;10368778;28;20052;-41
2024/01/30 13:19:38;;;;;;;6.47;3.77;;;;;;;17.07;48.07;97974.91;10367970;28;20056;-40
2024/01/30 13:24:39;;;;;;;9.23;4.27;;;;;;;17.08;50.16;97971.56;10366977;28;20045;-40
2024/01/30 13:29:39;;;;;;;7.40;4.17;;;;;;;17.07;49.84;97972.38;10367651;28;20021;-38
2024/01/30 13:34:40;;;;;;;11.27;4.15;;;;;;;17.07;51.10;97983.31;10367857;28;20033;-41
2024/01/30 13:39:41;;;;;;;8.55;3.72;;;;;;;17.06;49.12;97974.03;10367434;28;20038;-37
2024/01/30 13:44:43;;;;;;;5.47;2.50;;;;;;;17.07;47.49;97968.16;10367521;28;20045;-38
2024/01/30 13:49:44;;;;;;;5.40;3.40;;;;;;;17.05;48.49;97967.25;10365846;28;20038;-38
2024/01/30 13:54:44;;;;;;;8.50;4.57;;;;;;;17.09;48.87;97963.97;10366343;28;20502;-37
2024/01/30 13:59:44;;;;;;;5.20;3.30;;;;;;;17.07;48.39;97964.78;10365483;28;20041;-40
2024/01/30 14:04:45;;;;;;;7.93;3.10;;;;;;;17.10;47.60;97964.84;10366596;28;20037;-37
2024/01/30 14:09:45;;;;;;;5.70;3.30;;;;;;;17.09;48.42;97966.50;10363917;28;20380;-41
2024/01/30 14:14:48;;;;;;;6.50;3.10;;;;;;;17.10;48.25;97967.38;10364857;28;20056;-38
2024/01/30 14:19:48;;;;;;;7.30;3.38;;;;;;;17.09;47.60;97966.50;10355345;28;20375;-38
2024/01/30 14:24:48;;;;;;;6.43;3.27;;;;;;;17.11;47.80;97972.47;10357683;28;20036;-39
2024/01/30 14:29:49;;;;;;;4.40;2.90;;;;;;;17.08;48.10;97986.72;10362564;28;20280;-40
2024/01/30 14:34:50;;;;;;;4.13;3.13;;;;;;;17.12;48.01;97979.25;10364754;28;20584;-38
2024/01/30 14:39:50;;;;;;;7.38;3.00;;;;;;;17.13;47.56;97983.50;10364738;28;20062;-40
2024/01/30 14:44:51;;;;;;;6.77;2.80;;;;;;;17.12;47.33;97991.03;10365463;28;20114;-40
2024/01/30 14:49:52;;;;;;;4.53;2.60;;;;;;;17.14;47.05;97997.84;10364226;28;20044;-39
2024/01/30 14:54:53;;;;;;;7.32;3.03;;;;;;;17.12;46.78;97999.50;10363936;28;20417;-37
2024/01/30 14:59:53;;;;;;;12.20;3.00;;;;;;;17.12;46.70;97996.97;10363817;28;20052;-38
2024/01/30 15:04:53;;;;;;;6.57;3.00;;;;;;;17.14;46.62;98002.09;10364368;28;20052;-35
2024/01/30 15:09:53;;;;;;;3.40;2.20;;;;;;;17.13;46.43;98002.88;10361057;28;20030;-40
2024/01/30 15:14:54;;;;;;;3.73;2.20;;;;;;;17.08;47.06;97986.72;10362006;28;20413;-41
2024/01/30 15:19:55;;;;;;;3.63;2.63;;;;;;;17.16;46.65;98005.50;10363435;28;20033;-41
2024/01/30 15:24:55;;;;;;;4.20;2.25;;;;;;;17.17;46.35;98009.72;10362086;28;20413;-41
2024/01/30 15:29:55;;;;;;;3.07;2.10;;;;;;;17.15;46.51;98003.78;10363019;28;20042;-39
2024/01/30 15:34:56;;;;;;;5.97;2.77;;;;;;;17.17;50.56;98002.16;10363394;28;20755;-38
2024/01/30 15:39:57;;;;;;;9.57;2.75;;;;;;;17.10;47.47;98010.38;10358642;28;20398;-39
2024/01/30 15:44:58;;;;;;;7.33;2.30;;;;;;;17.11;47.24;98012.09;10362653;28;20044;-40
2024/01/30 15:49:58;;;;;;;9.80;2.90;;;;;;;17.13;48.73;98010.47;10363490;28;20057;-40
2024/01/30 15:54:59;;;;;;;5.00;2.63;;;;;;;17.13;47.24;98016.38;10362291;28;20037;-40
2024/01/30 15:59:59;;;;;;;3.40;2.80;;;;;;;17.13;48.64;98026.50;10361993;28;20040;-38
2024/01/30 16:05:01;;;;;;;3.10;1.93;;;;;;;17.15;47.52;98026.56;10362855;28;20030;-40
2024/01/30 16:10:02;;;;;;;6.07;2.60;;;;;;;17.13;47.86;98031.56;10361913;28;21674;-39
2024/01/30 16:15:03;;;;;;;2.85;2.08;;;;;;;17.11;47.47;98037.41;10359875;28;20034;-38
2024/01/30 16:20:05;;;;;;;6.57;2.20;;;;;;;17.16;49.63;98046.00;10362832;28;20034;-38
2024/01/30 16:25:05;;;;;;;3.53;2.42;;;;;;;17.18;48.29;98044.34;10361279;28;20458;-39
2024/01/30 16:30:06;;;;;;;4.20;2.17;;;;;;;17.18;46.98;98044.34;10368466;28;20065;-39
2024/01/30 16:35:07;;;;;;;6.65;3.08;;;;;;;17.19;50.50;98046.06;10369531;28;20848;-38
2024/01/30 16:40:08;;;;;;;5.97;2.47;;;;;;;17.20;47.84;98053.69;10368971;28;20604;-39
2024/01/30 16:45:09;;;;;;;4.90;2.42;;;;;;;17.21;48.98;98055.41;10368166;28;20296;-39
2024/01/30 16:50:10;;;;;;;6.80;3.07;;;;;;;17.16;47.11;98066.22;10367735;28;20030;-40
2024/01/30 16:55:10;;;;;;;3.92;1.63;;;;;;;17.08;44.52;98065.16;10368806;28;20300;-37
2024/01/30 17:00:11;;;;;;;3.28;1.65;;;;;;;17.03;43.49;98072.63;10368822;28;20029;-36
2024/01/30 17:05:11;;;;;;;6.80;1.30;;;;;;;17.01;43.16;98075.94;10369341;28;20044;-38
2024/01/30 17:10:13;;;;;;;3.03;1.80;;;;;;;16.98;42.90;98080.94;10369173;28;20040;-41
2024/01/30 17:15:13;;;;;;;2.13;1.52;;;;;;;17.03;43.03;98086.94;10366481;28;21133;-35
2024/01/30 17:20:14;;;;;;;4.43;1.50;;;;;;;17.08;43.06;98090.47;10366239;28;20060;-38
2024/01/30 17:25:14;;;;;;;2.08;1.45;;;;;;;17.10;42.67;98096.44;10367896;28;20112;-39
2024/01/30 17:30:20;;;;;;;4.50;1.73;;;;;;;17.13;42.30;98096.50;10367433;28;20099;-39
2024/01/30 17:35:21;;;;;;;1.88;1.45;;;;;;;17.16;42.40;98096.59;10368078;28;20032;-40
2024/01/30 17:40:21;;;;;;;4.38;1.48;;;;;;;17.16;41.97;98099.13;10366734;28;20038;-38
2024/01/30 17:45:22;;;;;;;1.40;1.10;;;;;;;17.15;42.14;98108.38;10367128;28;20041;-40
2024/01/30 17:50:22;;;;;;;2.13;1.40;;;;;;;17.15;41.91;98113.44;10367232;28;20030;-38
2024/01/30 17:55:23;;;;;;;2.10;1.10;;;;;;;17.15;41.86;98115.13;10366399;28;20038;-36
2024/01/30 18:00:25;;;;;;;5.47;3.33;;;;;;;17.20;49.10;98118.63;10367094;28;20284;-41
2024/01/30 18:05:25;;;;;;;2.88;1.92;;;;;;;17.23;44.24;98121.25;10367217;28;20033;-36
2024/01/30 18:10:25;;;;;;;2.47;2.08;;;;;;;17.26;44.18;98118.81;10366013;28;20030;-39
2024/01/30 18:15:26;;;;;;;6.70;2.30;;;;;;;17.27;44.22;98126.44;10366228;28;20556;-36
2024/01/30 18:20:26;;;;;;;5.80;2.90;;;;;;;17.27;44.61;98123.91;10366565;28;20425;-35
2024/01/30 18:25:26;;;;;;;4.27;2.83;;;;;;;17.27;45.21;98126.44;10365148;28;20120;-35
2024/01/30 18:30:27;;;;;;;5.10;2.95;;;;;;;17.27;45.16;98136.56;10365614;28;20121;-37
2024/01/30 18:35:28;;;;;;;10.73;6.33;;;;;;;17.27;51.23;98145.81;10365934;28;20038;-36
2024/01/30 18:40:28;;;;;;;10.30;5.72;;;;;;;17.27;45.89;98139.09;10365200;28;20072;-37
2024/01/30 18:45:29;;;;;;;5.70;2.87;;;;;;;17.26;45.17;98149.19;10364573;28;20036;-37
2024/01/30 18:50:30;;;;;;;6.97;3.35;;;;;;;17.26;45.39;98155.06;10363400;28;20036;-36
2024/01/30 18:55:30;;;;;;;4.93;3.43;;;;;;;17.26;45.11;98139.06;10363595;28;20398;-36
2024/01/30 19:00:33;;;;;;;12.43;7.23;;;;;;;17.24;48.01;98145.75;10365021;28;20061;-36
2024/01/30 19:05:33;;;;;;;5.18;3.50;;;;;;;17.22;45.34;98137.25;10364691;28;20034;-39
2024/01/30 19:10:35;;;;;;;5.73;3.43;;;;;;;17.25;45.39;98135.66;10360251;28;20018;-38
2024/01/30 19:15:35;;;;;;;6.53;3.92;;;;;;;17.25;45.51;98152.53;10363306;28;20116;-39
2024/01/30 19:20:36;;;;;;;4.95;3.22;;;;;;;17.24;45.54;98150.81;10363332;28;20420;-41
2024/01/30 19:25:43;;;;;;;6.72;3.72;;;;;;;17.23;45.34;98144.88;10529386;27;20409;-37
2024/01/30 19:30:44;;;;;;;6.07;3.90;;;;;;;17.24;45.47;98150.81;10520581;28;20032;-36
2024/01/30 19:35:44;;;;;;;5.60;3.60;;;;;;;17.22;45.05;98143.16;10520775;28;20025;-39
2024/01/30 19:40:44;;;;;;;5.80;3.40;;;;;;;17.23;45.43;98151.63;10524198;28;20359;-37
2024/01/30 19:45:45;;;;;;;7.80;4.23;;;;;;;17.20;45.65;98144.81;10520550;28;20039;-37
2024/01/30 19:50:45;;;;;;;8.87;5.23;;;;;;;17.21;46.49;98150.72;10523783;28;20044;-37
2024/01/30 19:55:47;;;;;;;23.67;10.95;;;;;;;17.23;51.51;98146.56;10515156;28;20620;-36
2024/01/30 20:00:50;;;;;;;19.17;10.32;;;;;;;17.23;54.49;98157.53;10510885;28;20513;-38
2024/01/30 20:05:50;;;;;;;16.38;9.52;;;;;;;17.23;54.13;98170.19;10517001;28;20417;-37
2024/01/30 20:10:50;;;;;;;18.83;10.97;;;;;;;17.23;54.70;98169.34;10518721;28;20032;-37
2024/01/30 20:15:51;;;;;;;17.33;10.13;;;;;;;17.25;54.61;98172.78;10517132;28;20032;-39
2024/01/30 20:20:52;;;;;;;17.17;9.57;;;;;;;17.24;55.26;98168.53;10517835;28;20032;-36
2024/01/30 20:25:53;;;;;;;20.55;11.27;;;;;;;17.23;55.63;98185.38;10517651;28;20275;-37
2024/01/30 20:30:54;;;;;;;16.33;9.52;;;;;;;17.23;54.49;98184.53;10513848;28;20407;-39
2024/01/30 20:35:55;;;;;;;18.07;10.60;;;;;;;17.21;54.96;98178.56;10495600;28;20036;-34
2024/01/30 20:40:55;;;;;;;16.17;9.98;;;;;;;17.21;54.59;98181.94;10483232;28;20032;-37
2024/01/30 20:45:57;;;;;;;18.27;10.30;;;;;;;17.21;55.21;98183.63;10486840;28;20043;-38
2024/01/30 20:50:58;;;;;;;18.70;10.32;;;;;;;17.20;54.82;98180.25;10485051;28;20386;-38
2024/01/30 20:55:58;;;;;;;19.75;10.07;;;;;;;17.20;54.70;98179.38;10488859;28;20090;-38
2024/01/30 21:00:59;;;;;;;14.93;8.70;;;;;;;17.19;54.77;98167.53;10479089;28;20057;-37
2024/01/30 21:05:59;;;;;;;14.83;8.47;;;;;;;17.18;54.91;98170.88;10488293;28;20080;-34
2024/01/30 21:11:02;;;;;;;13.47;8.43;;;;;;;17.17;54.53;98174.22;10488294;28;20287;-36
2024/01/30 21:16:04;;;;;;;15.63;9.02;;;;;;;17.17;54.25;98169.19;10483680;28;20356;-38
2024/01/30 21:21:04;;;;;;;12.60;7.55;;;;;;;17.17;52.45;98159.88;10487020;28;20415;-38
2024/01/30 21:26:07;;;;;;;15.20;8.40;;;;;;;17.18;54.34;98175.94;10489538;28;20033;-36
2024/01/30 21:31:10;;;;;;;11.48;7.93;;;;;;;17.18;53.91;98175.94;10491321;28;20040;-38
2024/01/30 21:36:10;;;;;;;12.60;8.93;;;;;;;17.18;53.75;98173.41;10489344;28;20031;-36
2024/01/30 21:41:10;;;;;;;14.73;7.90;;;;;;;17.17;53.91;98175.06;10488678;28;20402;-36
2024/01/30 21:46:11;;;;;;;16.37;8.60;;;;;;;17.16;54.13;98177.59;10484288;28;20024;-39
2024/01/30 21:51:11;;;;;;;11.30;7.30;;;;;;;17.16;53.67;98170.00;10488526;28;20092;-37
2024/01/30 21:56:11;;;;;;;13.03;8.00;;;;;;;17.12;49.74;98173.22;10487768;28;20043;-35
2024/01/30 22:01:12;;;;;;;10.50;6.63;;;;;;;17.17;52.02;98186.88;10489313;28;20047;-36
2024/01/30 22:06:13;;;;;;;10.67;7.03;;;;;;;17.15;54.22;98186.00;10490582;28;20110;-37
2024/01/30 22:11:14;;;;;;;10.00;6.82;;;;;;;17.15;53.91;98191.06;10488715;28;20036;-38
2024/01/30 22:16:14;;;;;;;11.00;7.00;;;;;;;17.15;53.71;98191.06;10488842;28;20036;-39
2024/01/30 22:21:15;;;;;;;11.27;6.75;;;;;;;17.12;53.27;98184.22;10491136;28;20486;-39
2024/01/30 22:26:15;;;;;;;9.95;6.43;;;;;;;17.14;54.53;98186.81;10488469;28;20238;-38
2024/01/30 22:31:16;;;;;;;9.87;6.07;;;;;;;17.12;54.77;98175.75;10488569;28;20032;-40
2024/01/30 22:36:16;;;;;;;18.50;7.13;;;;;;;17.10;53.96;98183.34;10489526;28;20035;-38
2024/01/30 22:41:24;;;;;;;9.77;6.73;;;;;;;17.11;53.90;98190.09;10491464;28;20714;-38
2024/01/30 22:46:25;;;;;;;10.55;5.78;;;;;;;17.10;55.25;98185.00;10486539;28;20043;-39
2024/01/30 22:51:28;;;;;;;10.30;6.43;;;;;;;17.10;55.69;98192.59;10489463;28;20045;-35
2024/01/30 22:56:28;;;;;;;11.77;6.65;;;;;;;17.11;55.11;98191.75;10486922;28;20047;-38
2024/01/30 23:01:29;;;;;;;13.27;6.60;;;;;;;17.11;55.64;98212.00;10488578;28;20399;-37
2024/01/30 23:06:29;;;;;;;10.93;6.40;;;;;;;17.11;55.46;98209.47;10488551;28;20398;-35
2024/01/30 23:11:29;;;;;;;7.93;5.80;;;;;;;17.10;54.76;98197.66;10487045;28;20499;-39